Time;durP1;ratioP1;P1;durP2;ratioP2;P2;SDS_P1;SDS_P2;PMS_P1;PMS_P2;Temp;Humidity;BMP_temperature;BMP_pressure;BME280_temperature;BME280_humidity;BME280_pressure;Samples;Min_cycle;Max_cycle;Signal;HPM_P1;HPM_P2
2022/05/30 00:04:07;;;;;;;7.50;5.60;;;;;;;;;;10486933;28;20418;-71
2022/05/30 00:09:08;;;;;;;9.65;5.82;;;;;;;;;;10486696;28;20115;-71
2022/05/30 00:14:09;;;;;;;10.70;6.13;;;;;;;;;;10461952;28;20410;-72
2022/05/30 00:19:09;;;;;;;12.25;6.53;;;;;;;;;;10479269;28;20012;-75
2022/05/30 00:24:10;;;;;;;12.23;6.50;;;;;;;;;;10485253;28;20389;-71
2022/05/30 00:29:10;;;;;;;11.20;7.03;;;;;;;;;;10485204;28;20016;-70
2022/05/30 00:34:10;;;;;;;14.95;6.30;;;;;;;;;;10484920;28;20020;-72
2022/05/30 00:39:11;;;;;;;12.30;6.27;;;;;;;;;;10501415;28;20036;-74
2022/05/30 00:44:11;;;;;;;16.80;7.88;;;;;;;;;;10501671;28;20024;-72
2022/05/30 00:49:12;;;;;;;14.55;7.25;;;;;;;;;;10483732;28;20020;-72
2022/05/30 00:54:15;;;;;;;12.32;6.85;;;;;;;;;;10485013;28;20410;-70
2022/05/30 00:59:16;;;;;;;13.07;7.40;;;;;;;;;;10484161;28;20078;-71
2022/05/30 01:09:40;;;;;;;15.90;8.18;;;;;;;;;;10487149;28;20028;-71
2022/05/30 01:14:42;;;;;;;13.85;7.03;;;;;;;;;;10486207;28;20029;-71
2022/05/30 01:19:51;;;;;;;14.05;6.68;;;;;;;;;;10485521;28;20022;-71
2022/05/30 01:25:07;;;;;;;13.45;7.85;;;;;;;;;;10485010;28;20554;-72
2022/05/30 01:30:09;;;;;;;11.80;7.20;;;;;;;;;;10486067;28;20033;-72
2022/05/30 01:35:10;;;;;;;13.70;8.60;;;;;;;;;;10486110;28;20016;-72
2022/05/30 01:40:10;;;;;;;11.52;7.43;;;;;;;;;;10468039;28;20106;-71
2022/05/30 01:45:11;;;;;;;19.25;9.82;;;;;;;;;;10484255;28;20070;-73
2022/05/30 01:50:11;;;;;;;18.17;8.98;;;;;;;;;;10485795;28;20095;-71
2022/05/30 01:55:12;;;;;;;15.25;8.18;;;;;;;;;;10484939;28;20486;-71
2022/05/30 02:00:12;;;;;;;15.50;9.60;;;;;;;;;;10485840;28;20016;-71
2022/05/30 02:05:13;;;;;;;23.20;10.55;;;;;;;;;;10492425;28;20016;-75
2022/05/30 02:10:13;;;;;;;20.53;11.67;;;;;;;;;;10500610;28;20066;-71
2022/05/30 02:15:13;;;;;;;23.83;13.02;;;;;;;;;;10493223;28;20112;-71
2022/05/30 02:20:14;;;;;;;26.48;12.73;;;;;;;;;;10491746;28;20490;-72
2022/05/30 02:25:14;;;;;;;35.60;16.97;;;;;;;;;;10493129;28;20395;-72
2022/05/30 02:30:14;;;;;;;34.22;15.73;;;;;;;;;;10493161;28;20327;-73
2022/05/30 02:40:33;;;;;;;38.55;16.38;;;;;;;;;;10462057;28;20072;-72
2022/05/30 02:45:35;;;;;;;31.38;14.57;;;;;;;;;;10449367;28;20566;-71
2022/05/30 02:50:35;;;;;;;35.75;16.60;;;;;;;;;;10449530;28;20029;-74
2022/05/30 02:55:35;;;;;;;28.08;15.10;;;;;;;;;;10449185;28;20029;-70
2022/05/30 03:00:36;;;;;;;35.07;15.43;;;;;;;;;;10467538;28;20021;-72
2022/05/30 03:05:37;;;;;;;33.95;17.20;;;;;;;;;;10491318;28;20501;-70
2022/05/30 03:10:37;;;;;;;32.45;14.85;;;;;;;;;;10490457;28;20074;-71
2022/05/30 03:15:37;;;;;;;29.83;14.85;;;;;;;;;;10489850;28;20024;-76
2022/05/30 03:20:38;;;;;;;26.40;13.35;;;;;;;;;;10489680;28;20025;-73
2022/05/30 03:25:38;;;;;;;24.17;12.18;;;;;;;;;;10488938;28;20017;-73
2022/05/30 03:30:38;;;;;;;28.02;12.02;;;;;;;;;;10490715;28;20031;-72
2022/05/30 03:35:39;;;;;;;21.30;11.33;;;;;;;;;;10489028;28;20024;-73
2022/05/30 03:40:40;;;;;;;22.88;10.48;;;;;;;;;;10488362;28;20089;-71
2022/05/30 03:45:41;;;;;;;27.58;11.13;;;;;;;;;;10488479;28;20454;-71
2022/05/30 03:50:42;;;;;;;24.13;11.95;;;;;;;;;;10482830;28;20025;-73
2022/05/30 03:55:44;;;;;;;22.88;8.80;;;;;;;;;;10445683;28;20470;-72
2022/05/30 04:00:44;;;;;;;22.90;8.57;;;;;;;;;;10445113;28;20473;-72
2022/05/30 04:05:44;;;;;;;16.33;8.07;;;;;;;;;;10445888;28;20028;-73
2022/05/30 04:10:45;;;;;;;16.35;8.05;;;;;;;;;;10469940;28;20449;-74
2022/05/30 04:15:45;;;;;;;16.95;8.95;;;;;;;;;;10485807;28;20025;-73
2022/05/30 04:20:46;;;;;;;16.02;8.48;;;;;;;;;;10485594;28;20081;-74
2022/05/30 04:25:46;;;;;;;13.27;7.80;;;;;;;;;;10463860;28;20013;-73
2022/05/30 04:30:47;;;;;;;14.75;7.28;;;;;;;;;;10444024;28;20029;-74
2022/05/30 04:35:47;;;;;;;12.80;7.40;;;;;;;;;;10446500;28;20086;-75
2022/05/30 04:40:47;;;;;;;15.77;6.53;;;;;;;;;;10482048;28;20581;-73
2022/05/30 04:46:01;;;;;;;21.08;6.70;;;;;;;;;;10482019;28;20024;-77
2022/05/30 04:51:01;;;;;;;10.82;6.63;;;;;;;;;;10483919;28;20481;-72
2022/05/30 04:56:02;;;;;;;12.93;6.20;;;;;;;;;;10486714;28;20036;-73
2022/05/30 05:01:04;;;;;;;13.00;6.78;;;;;;;;;;10485060;28;20029;-77
2022/05/30 05:06:12;;;;;;;10.48;6.43;;;;;;;;;;10484746;28;20031;-76
2022/05/30 05:11:13;;;;;;;9.55;5.88;;;;;;;;;;10485089;28;20021;-74
2022/05/30 05:16:14;;;;;;;20.00;7.72;;;;;;;;;;10485391;28;20410;-74
2022/05/30 05:21:15;;;;;;;14.18;5.85;;;;;;;;;;10476697;28;20639;-74
2022/05/30 05:26:16;;;;;;;15.07;6.65;;;;;;;;;;10485525;28;20081;-73
2022/05/30 05:31:24;;;;;;;10.80;6.28;;;;;;;;;;10484235;28;20073;-73
2022/05/30 05:36:26;;;;;;;13.90;6.15;;;;;;;;;;10484063;28;20115;-79
2022/05/30 05:41:27;;;;;;;14.57;7.20;;;;;;;;;;10482987;28;20052;-74
2022/05/30 05:46:29;;;;;;;15.95;7.45;;;;;;;;;;10468045;28;20013;-78
2022/05/30 05:51:29;;;;;;;18.65;10.35;;;;;;;;;;10456111;28;20486;-74
2022/05/30 05:56:30;;;;;;;15.50;9.43;;;;;;;;;;10483455;28;20021;-71
2022/05/30 06:01:32;;;;;;;18.63;9.57;;;;;;;;;;10484116;28;20454;-73
2022/05/30 06:06:33;;;;;;;19.20;8.90;;;;;;;;;;10483456;28;20139;-73
2022/05/30 06:11:33;;;;;;;15.50;8.88;;;;;;;;;;10483962;28;20020;-73
2022/05/30 06:16:37;;;;;;;18.17;9.63;;;;;;;;;;10484065;28;20020;-73
2022/05/30 06:21:38;;;;;;;19.48;9.05;;;;;;;;;;10483172;28;20499;-72
2022/05/30 06:26:39;;;;;;;19.23;10.25;;;;;;;;;;10483327;28;20529;-76
2022/05/30 06:31:40;;;;;;;23.05;11.95;;;;;;;;;;10483703;28;20116;-78
2022/05/30 06:36:41;;;;;;;28.25;12.18;;;;;;;;;;10483213;28;20031;-73
2022/05/30 06:41:41;;;;;;;28.92;12.48;;;;;;;;;;10484076;28;20140;-75
2022/05/30 06:46:42;;;;;;;37.03;13.10;;;;;;;;;;10485552;28;20023;-74
2022/05/30 06:51:44;;;;;;;22.63;12.20;;;;;;;;;;10490578;28;20024;-73
2022/05/30 07:02:05;;;;;;;25.35;12.77;;;;;;;;;;10489839;28;20112;-74
2022/05/30 07:07:06;;;;;;;19.73;11.02;;;;;;;;;;10490255;28;20032;-76
2022/05/30 07:12:08;;;;;;;20.20;11.18;;;;;;;;;;10490997;28;20108;-74
2022/05/30 07:17:11;;;;;;;19.55;10.63;;;;;;;;;;10490858;28;20021;-73
2022/05/30 07:22:12;;;;;;;21.33;11.88;;;;;;;;;;10489180;28;20070;-73
2022/05/30 07:27:12;;;;;;;26.23;11.48;;;;;;;;;;10489520;28;20115;-74
2022/05/30 07:32:12;;;;;;;21.23;9.90;;;;;;;;;;10489002;28;20028;-73
2022/05/30 07:37:12;;;;;;;17.97;8.87;;;;;;;;;;10490276;28;20137;-73
2022/05/30 07:42:13;;;;;;;16.85;8.70;;;;;;;;;;10488360;28;20121;-73
2022/05/30 07:47:17;;;;;;;17.20;8.50;;;;;;;;;;10488228;28;20383;-73
2022/05/30 07:52:17;;;;;;;18.55;8.23;;;;;;;;;;10488953;28;20059;-73
2022/05/30 07:57:17;;;;;;;16.83;8.25;;;;;;;;;;10505454;28;20111;-76
2022/05/30 08:02:17;;;;;;;20.20;8.02;;;;;;;;;;10487643;28;20440;-74
2022/05/30 08:07:18;;;;;;;15.35;7.28;;;;;;;;;;10488020;28;20501;-73
2022/05/30 08:12:18;;;;;;;12.30;7.30;;;;;;;;;;10487467;28;20111;-72
2022/05/30 08:17:19;;;;;;;14.93;7.15;;;;;;;;;;10488416;28;20040;-73
2022/05/30 08:22:22;;;;;;;10.00;6.90;;;;;;;;;;10486692;28;20130;-73
2022/05/30 08:27:22;;;;;;;11.95;6.22;;;;;;;;;;10486320;28;20028;-73
2022/05/30 08:32:23;;;;;;;15.85;6.32;;;;;;;;;;10486999;28;20020;-79
2022/05/30 08:37:25;;;;;;;13.07;5.90;;;;;;;;;;10487673;28;20021;-74
2022/05/30 08:42:29;;;;;;;9.55;7.00;;;;;;;;;;10486128;28;20035;-72
2022/05/30 08:47:51;;;;;;;13.57;4.78;;;;;;;;;;10485919;28;20024;-72
2022/05/30 08:53:14;;;;;;;10.60;6.05;;;;;;;;;;10485362;28;20029;-72
2022/05/30 08:58:33;;;;;;;10.23;5.40;;;;;;;;;;10441989;28;20029;-75
2022/05/30 09:03:37;;;;;;;7.85;4.35;;;;;;;;;;10444202;28;20059;-75
2022/05/30 09:08:41;;;;;;;5.65;3.88;;;;;;;;;;10459201;28;20035;-74
2022/05/30 09:13:45;;;;;;;7.43;3.55;;;;;;;;;;10485075;28;20028;-73
2022/05/30 09:18:51;;;;;;;8.85;3.17;;;;;;;;;;10486021;28;20115;-72
2022/05/30 09:23:51;;;;;;;9.27;4.47;;;;;;;;;;10485036;28;20508;-73
2022/05/30 09:28:53;;;;;;;13.50;4.97;;;;;;;;;;10484633;28;20020;-74
2022/05/30 09:33:54;;;;;;;8.75;3.50;;;;;;;;;;10467244;28;20027;-73
2022/05/30 09:38:56;;;;;;;13.00;3.45;;;;;;;;;;10484383;28;20045;-72
2022/05/30 09:44:03;;;;;;;5.47;3.20;;;;;;;;;;10484392;28;20013;-72
2022/05/30 09:49:05;;;;;;;7.20;3.10;;;;;;;;;;10467646;28;20021;-73
2022/05/30 09:54:32;;;;;;;6.55;3.78;;;;;;;;;;10484059;28;20105;-71
2022/05/30 09:59:38;;;;;;;7.10;3.30;;;;;;;;;;10445954;28;20487;-72
2022/05/30 10:04:41;;;;;;;6.15;3.50;;;;;;;;;;10457029;28;20048;-73
2022/05/30 10:09:52;;;;;;;9.70;3.53;;;;;;;;;;10484148;28;20013;-75
2022/05/30 10:14:53;;;;;;;15.43;3.95;;;;;;;;;;10484571;28;20024;-78
2022/05/30 10:19:53;;;;;;;7.90;3.05;;;;;;;;;;10484051;28;20386;-75
2022/05/30 10:30:24;;;;;;;10.55;2.95;;;;;;;;;;10493420;28;20409;-72
2022/05/30 10:35:25;;;;;;;6.28;3.10;;;;;;;;;;10492180;28;20017;-72
2022/05/30 10:40:31;;;;;;;9.45;2.85;;;;;;;;;;10491075;28;20434;-73
2022/05/30 10:45:45;;;;;;;8.68;2.72;;;;;;;;;;10491951;28;20020;-72
2022/05/30 10:50:53;;;;;;;6.07;2.65;;;;;;;;;;10490536;28;20493;-74
2022/05/30 10:55:55;;;;;;;8.43;3.20;;;;;;;;;;10490428;28;20021;-72
2022/05/30 11:00:58;;;;;;;11.15;3.75;;;;;;;;;;10491161;28;20032;-71
2022/05/30 11:06:09;;;;;;;10.35;3.35;;;;;;;;;;10490394;28;20028;-77
2022/05/30 11:11:21;;;;;;;10.32;3.38;;;;;;;;;;10489788;28;20021;-76
2022/05/30 11:16:37;;;;;;;8.90;3.47;;;;;;;;;;10489530;28;20754;-76
2022/05/30 11:21:42;;;;;;;7.43;4.53;;;;;;;;;;10488963;28;20024;-76
2022/05/30 11:26:58;;;;;;;9.40;4.22;;;;;;;;;;10489507;28;20012;-73
2022/05/30 11:32:01;;;;;;;18.30;4.60;;;;;;;;;;10489152;28;20077;-73
2022/05/30 11:37:33;;;;;;;11.20;3.97;;;;;;;;;;10488591;28;20475;-77
2022/05/30 11:42:48;;;;;;;12.15;4.20;;;;;;;;;;10488771;28;20044;-72
2022/05/30 11:47:48;;;;;;;10.32;4.30;;;;;;;;;;10488456;28;20033;-72
2022/05/30 11:53:02;;;;;;;12.23;4.13;;;;;;;;;;10488743;28;20375;-75
2022/05/30 11:58:10;;;;;;;12.07;3.88;;;;;;;;;;10471387;28;20029;-73
2022/05/30 12:03:13;;;;;;;10.32;4.68;;;;;;;;;;10489232;28;20029;-74
2022/05/30 12:08:16;;;;;;;24.13;8.90;;;;;;;;;;10487820;28;20077;-77
2022/05/30 12:13:26;;;;;;;7.63;4.15;;;;;;;;;;10487775;28;20470;-73
2022/05/30 12:23:58;;;;;;;8.43;3.55;;;;;;;;;;10489195;28;20036;-71
2022/05/30 12:28:58;;;;;;;11.70;4.45;;;;;;;;;;10486655;28;20024;-74
2022/05/30 12:33:58;;;;;;;12.70;4.25;;;;;;;;;;10486847;28;20032;-72
2022/05/30 12:39:00;;;;;;;19.87;4.53;;;;;;;;;;10486129;28;20056;-79
2022/05/30 12:44:00;;;;;;;8.13;3.45;;;;;;;;;;10485655;28;20478;-73
2022/05/30 12:49:01;;;;;;;11.15;3.67;;;;;;;;;;10486724;28;20033;-72
2022/05/30 12:54:01;;;;;;;11.13;4.07;;;;;;;;;;10485347;28;20081;-73
2022/05/30 12:59:19;;;;;;;10.75;3.90;;;;;;;;;;10491925;28;20016;-78
2022/05/30 13:04:22;;;;;;;11.43;3.13;;;;;;;;;;10501398;28;20078;-72
2022/05/30 13:09:35;;;;;;;72.75;16.50;;;;;;;;;;10511330;28;20038;-72
2022/05/30 13:14:36;;;;;;;12.68;4.20;;;;;;;;;;10489817;28;20064;-73
2022/05/30 13:19:44;;;;;;;21.80;5.25;;;;;;;;;;10496273;28;20135;-73
2022/05/30 13:24:45;;;;;;;9.43;2.80;;;;;;;;;;10498343;28;20452;-74
2022/05/30 13:29:45;;;;;;;11.13;3.38;;;;;;;;;;10506871;28;20028;-71
2022/05/30 13:34:57;;;;;;;7.47;2.72;;;;;;;;;;10504014;28;20055;-72
2022/05/30 13:40:03;;;;;;;10.23;3.03;;;;;;;;;;10500891;28;20052;-76
2022/05/30 13:45:03;;;;;;;11.93;3.80;;;;;;;;;;10502511;28;20429;-74
2022/05/30 13:50:04;;;;;;;8.88;2.10;;;;;;;;;;10498912;28;20031;-75
2022/05/30 13:55:07;;;;;;;8.20;2.10;;;;;;;;;;10507002;28;20089;-77
2022/05/30 14:00:09;;;;;;;13.45;3.10;;;;;;;;;;10511599;28;20811;-74
2022/05/30 14:05:12;;;;;;;12.38;2.72;;;;;;;;;;10506578;28;20052;-79
2022/05/30 14:10:14;;;;;;;10.98;3.70;;;;;;;;;;10507727;28;20118;-71
2022/05/30 14:15:20;;;;;;;12.27;5.28;;;;;;;;;;10515182;28;20036;-79
2022/05/30 14:20:23;;;;;;;9.55;3.47;;;;;;;;;;10508383;28;20509;-73
2022/05/30 14:25:31;;;;;;;12.40;3.20;;;;;;;;;;10511889;28;20031;-72
2022/05/30 14:30:32;;;;;;;10.00;2.88;;;;;;;;;;10509221;28;20460;-73
2022/05/30 14:35:33;;;;;;;7.13;3.00;;;;;;;;;;10508287;28;20036;-71
2022/05/30 14:40:46;;;;;;;9.33;2.60;;;;;;;;;;10506415;28;20098;-73
2022/05/30 14:45:59;;;;;;;10.70;3.35;;;;;;;;;;10506247;28;20365;-72
2022/05/30 14:51:02;;;;;;;11.23;3.17;;;;;;;;;;10483998;28;20042;-73
2022/05/30 14:56:05;;;;;;;5.07;2.53;;;;;;;;;;10511978;28;20437;-73
2022/05/30 15:01:06;;;;;;;11.43;3.00;;;;;;;;;;10507833;28;20061;-72
2022/05/30 15:06:09;;;;;;;7.72;2.83;;;;;;;;;;10504389;28;20074;-72
2022/05/30 15:11:16;;;;;;;5.20;2.70;;;;;;;;;;10510382;28;20039;-71
2022/05/30 15:16:17;;;;;;;6.13;3.60;;;;;;;;;;10499072;28;20025;-79
2022/05/30 15:21:29;;;;;;;9.52;3.17;;;;;;;;;;10493236;28;20282;-73
2022/05/30 15:26:29;;;;;;;8.80;2.47;;;;;;;;;;10494628;28;20016;-77
2022/05/30 15:31:31;;;;;;;5.45;2.55;;;;;;;;;;10501209;28;20029;-72
2022/05/30 15:36:31;;;;;;;10.43;2.30;;;;;;;;;;10508436;28;20112;-77
2022/05/30 15:41:32;;;;;;;8.02;2.53;;;;;;;;;;10493469;28;20598;-73
2022/05/30 15:46:32;;;;;;;4.77;2.00;;;;;;;;;;10500301;28;20450;-76
2022/05/30 15:51:34;;;;;;;10.00;2.22;;;;;;;;;;10499949;28;20123;-75
2022/05/30 16:01:53;;;;;;;7.13;2.83;;;;;;;;;;10503451;28;20367;-78
2022/05/30 16:06:53;;;;;;;13.55;4.07;;;;;;;;;;10490058;28;20035;-71
2022/05/30 16:11:54;;;;;;;11.83;3.73;;;;;;;;;;10502575;28;20020;-72
2022/05/30 16:16:54;;;;;;;6.55;2.90;;;;;;;;;;10498571;28;20676;-77
2022/05/30 16:21:56;;;;;;;6.97;3.00;;;;;;;;;;10504567;28;20028;-71
2022/05/30 16:26:56;;;;;;;5.82;3.08;;;;;;;;;;10506975;28;20053;-75
2022/05/30 16:31:56;;;;;;;10.43;3.50;;;;;;;;;;10503351;28;20576;-75
2022/05/30 16:36:58;;;;;;;5.32;2.75;;;;;;;;;;10503034;28;20028;-72
2022/05/30 16:42:00;;;;;;;17.45;4.95;;;;;;;;;;10499189;28;20323;-76
2022/05/30 16:47:00;;;;;;;10.02;3.65;;;;;;;;;;10501669;28;20013;-74
2022/05/30 16:52:02;;;;;;;6.75;3.58;;;;;;;;;;10498670;28;20405;-72
2022/05/30 16:57:03;;;;;;;12.15;3.83;;;;;;;;;;10502918;28;20161;-72
2022/05/30 17:02:03;;;;;;;10.20;3.95;;;;;;;;;;10500452;28;20095;-77
2022/05/30 17:07:05;;;;;;;9.05;3.95;;;;;;;;;;10504898;28;20020;-73
2022/05/30 17:12:06;;;;;;;13.43;4.35;;;;;;;;;;10508640;28;20016;-72
2022/05/30 17:17:10;;;;;;;10.82;3.50;;;;;;;;;;10507526;28;20387;-78
2022/05/30 17:22:11;;;;;;;9.10;4.65;;;;;;;;;;10499302;28;20032;-74
2022/05/30 17:32:32;;;;;;;15.73;4.78;;;;;;;;;;10498474;28;20078;-74
2022/05/30 17:37:32;;;;;;;16.70;4.40;;;;;;;;;;10496435;28;20422;-75
2022/05/30 17:42:36;;;;;;;6.10;3.33;;;;;;;;;;10493981;28;20059;-73
2022/05/30 17:47:48;;;;;;;15.00;4.40;;;;;;;;;;10483313;28;20021;-73
2022/05/30 17:52:48;;;;;;;18.85;5.15;;;;;;;;;;10490349;28;20020;-74
2022/05/30 17:57:49;;;;;;;11.48;4.57;;;;;;;;;;10497324;28;20032;-71
2022/05/30 18:02:49;;;;;;;11.98;5.38;;;;;;;;;;10494277;28;20020;-71
2022/05/30 18:07:57;;;;;;;9.40;4.40;;;;;;;;;;10489968;28;20020;-73
2022/05/30 18:12:57;;;;;;;;;;;;;;;;;;10492794;28;20115;-75
2022/05/30 18:23:35;;;;;;;12.82;3.90;;;;;;;;;;10493223;28;20347;-74
2022/05/30 18:28:36;;;;;;;11.07;4.35;;;;;;;;;;10491540;28;20024;-77
2022/05/30 18:33:39;;;;;;;15.65;4.90;;;;;;;;;;10486322;28;20572;-79
2022/05/30 18:38:48;;;;;;;18.25;4.90;;;;;;;;;;10491163;28;20056;-74
2022/05/30 18:44:00;;;;;;;11.77;4.95;;;;;;;;;;10499245;28;20062;-72
2022/05/30 18:49:07;;;;;;;15.82;5.13;;;;;;;;;;10505264;28;20025;-72
2022/05/30 18:54:08;;;;;;;10.95;4.50;;;;;;;;;;10495040;28;20459;-70
2022/05/30 18:59:16;;;;;;;14.07;4.85;;;;;;;;;;10504057;28;20016;-71
2022/05/30 19:04:17;;;;;;;17.13;4.88;;;;;;;;;;10511780;28;20027;-75
2022/05/30 19:09:18;;;;;;;8.90;4.82;;;;;;;;;;10493355;28;20510;-69
2022/05/30 19:14:28;;;;;;;8.90;5.07;;;;;;;;;;10496527;28;20032;-70
2022/05/30 19:19:48;;;;;;;11.93;5.05;;;;;;;;;;10476112;28;20035;-73
2022/05/30 19:24:48;;;;;;;10.80;5.68;;;;;;;;;;10493029;28;20118;-75
2022/05/30 19:29:49;;;;;;;12.18;4.60;;;;;;;;;;10493371;28;20020;-71
2022/05/30 19:34:50;;;;;;;16.35;7.07;;;;;;;;;;10507987;28;20024;-71
2022/05/30 19:39:50;;;;;;;34.75;15.65;;;;;;;;;;10493825;28;20506;-71
2022/05/30 19:44:51;;;;;;;7.10;4.15;;;;;;;;;;10498662;28;20128;-76
2022/05/30 19:49:51;;;;;;;9.50;4.28;;;;;;;;;;10512955;28;20423;-72
2022/05/30 19:54:54;;;;;;;15.13;5.37;;;;;;;;;;10508319;28;20143;-72
2022/05/30 19:59:54;;;;;;;10.05;4.30;;;;;;;;;;10507092;28;20439;-71
2022/05/30 20:04:54;;;;;;;12.17;5.50;;;;;;;;;;10505636;28;20046;-71
2022/05/30 20:09:54;;;;;;;12.93;4.93;;;;;;;;;;10496870;28;20103;-75
2022/05/30 20:14:55;;;;;;;15.03;4.50;;;;;;;;;;10493274;28;20796;-74
2022/05/30 20:19:56;;;;;;;10.13;4.20;;;;;;;;;;10492043;28;20025;-71
2022/05/30 20:24:56;;;;;;;9.10;4.63;;;;;;;;;;10489129;28;20016;-68
2022/05/30 20:29:57;;;;;;;10.80;4.63;;;;;;;;;;10493955;28;20020;-72
2022/05/30 20:34:57;;;;;;;9.40;4.18;;;;;;;;;;10491699;28;20028;-74
2022/05/30 20:39:57;;;;;;;10.20;4.17;;;;;;;;;;10491836;28;20044;-70
2022/05/30 20:44:57;;;;;;;11.05;5.38;;;;;;;;;;10490462;28;20116;-70
2022/05/30 20:49:58;;;;;;;7.53;3.73;;;;;;;;;;10490535;28;20020;-70
2022/05/30 20:54:58;;;;;;;9.02;4.03;;;;;;;;;;10492138;28;20130;-71
2022/05/30 20:59:58;;;;;;;11.50;4.78;;;;;;;;;;10455267;28;20021;-71
2022/05/30 21:04:59;;;;;;;8.35;3.45;;;;;;;;;;10442966;28;20025;-71
2022/05/30 21:09:59;;;;;;;10.85;5.43;;;;;;;;;;10443037;28;20025;-72
2022/05/30 21:14:59;;;;;;;11.80;4.57;;;;;;;;;;10443676;28;20017;-72
2022/05/30 21:20:14;;;;;;;12.40;4.03;;;;;;;;;;10444726;28;20017;-71
2022/05/30 21:25:15;;;;;;;14.00;4.13;;;;;;;;;;10486075;28;20296;-71
2022/05/30 21:30:17;;;;;;;9.02;4.40;;;;;;;;;;10485363;28;20024;-71
2022/05/30 21:35:18;;;;;;;11.20;4.38;;;;;;;;;;10486673;28;20666;-69
2022/05/30 21:40:19;;;;;;;12.27;4.45;;;;;;;;;;10468170;28;20051;-70
2022/05/30 21:45:20;;;;;;;8.35;3.67;;;;;;;;;;10485269;28;20027;-72
2022/05/30 21:50:26;;;;;;;9.20;3.60;;;;;;;;;;10485505;28;20425;-73
2022/05/30 21:55:27;;;;;;;9.48;4.47;;;;;;;;;;10484878;28;20031;-72
2022/05/30 22:00:30;;;;;;;10.80;4.22;;;;;;;;;;10466365;28;20017;-76
2022/05/30 22:05:31;;;;;;;7.05;3.75;;;;;;;;;;10447918;28;20031;-72
2022/05/30 22:10:32;;;;;;;10.82;4.97;;;;;;;;;;10441990;28;20036;-72
2022/05/30 22:15:32;;;;;;;11.40;4.50;;;;;;;;;;10468385;28;20028;-72
2022/05/30 22:20:34;;;;;;;9.30;3.63;;;;;;;;;;10491228;28;20510;-70
2022/05/30 22:25:35;;;;;;;7.70;4.25;;;;;;;;;;10488185;28;20647;-71
2022/05/30 22:30:36;;;;;;;10.65;5.85;;;;;;;;;;10490612;28;20082;-74
2022/05/30 22:35:47;;;;;;;9.52;4.85;;;;;;;;;;10489852;28;20016;-71
2022/05/30 22:40:47;;;;;;;8.45;4.05;;;;;;;;;;10491457;28;20476;-72
2022/05/30 22:45:48;;;;;;;8.98;5.30;;;;;;;;;;10485175;28;20029;-69
2022/05/30 22:55:49;;;;;;;14.23;5.47;;;;;;;;;;10479321;28;20020;-71
2022/05/30 23:00:50;;;;;;;13.07;6.85;;;;;;;;;;10490680;28;20033;-72
2022/05/30 23:05:51;;;;;;;9.90;6.40;;;;;;;;;;10490536;28;20528;-69
2022/05/30 23:11:04;;;;;;;12.80;5.90;;;;;;;;;;10490733;28;20020;-72
2022/05/30 23:16:06;;;;;;;23.10;7.00;;;;;;;;;;10490847;28;20048;-71
2022/05/30 23:21:08;;;;;;;17.75;7.93;;;;;;;;;;10490476;28;20535;-72
2022/05/30 23:26:08;;;;;;;21.00;7.10;;;;;;;;;;10449098;28;20017;-70
2022/05/30 23:31:09;;;;;;;12.65;6.35;;;;;;;;;;10456873;28;20490;-71
2022/05/30 23:36:09;;;;;;;9.85;6.75;;;;;;;;;;10491815;28;20111;-71
2022/05/30 23:46:28;;;;;;;24.38;7.45;;;;;;;;;;10490631;28;20048;-71
2022/05/30 23:51:29;;;;;;;19.00;7.00;;;;;;;;;;10490423;28;20485;-71
2022/05/30 23:56:29;;;;;;;13.82;7.35;;;;;;;;;;10489094;28;20028;-77
